CheckWX is a tool to help pilots better visualize weather data.  It is not intended as a substitute for an official pre-flight weather briefing.

02:12:33 UTC

KLUK METAR
Cincinnati Municipal Lunken Field Airport
Cincinnati, Ohio, USA
Current

20 mins ago

KLUK 180153Z 26007KT 10SM OVC010 02/M01 A2985 RMK AO2 CIG 009V014 SLP110 T00171006
Observed
Feb-18 @ 01:53 UTC
Wind
  • 260° at 7 KTS
Visibility
10 SM
Flight Rules
MVFR
Cloud Levels
  • Overcast at 1,000' AGL
Temperature
C / 36°F
Dewpoint
-1°C / 30°F
Humidity
81%
Altimeter
29.85" Hg
Pressure
1011 hPa
Previous

39 mins ago

KLUK 180134Z 25007KT 4SM BR OVC010 01/M01 A2984 RMK AO2 CIG 009V013 T00111006
Observed
Feb-18 @ 01:34 UTC
Wind
  • 250° at 7 KTS
Visibility
4 SM
Flight Rules
MVFR
Conditions
Mist
Cloud Levels
  • Overcast at 1,000' AGL
Temperature
C / 34°F
Dewpoint
-1°C / 30°F
Humidity
87%
Altimeter
29.84" Hg
Pressure
1010.52 hPa
Previous

1 hour ago

KLUK 180053Z 26006KT 6SM BR OVC008 01/M01 A2983 RMK AO2 CIG 006V011 SLP104 T00111006
Observed
Feb-18 @ 00:53 UTC
Wind
  • 260° at 6 KTS
Visibility
6 SM
Flight Rules
IFR
Conditions
Mist
Cloud Levels
  • Overcast at 800' AGL
Temperature
C / 34°F
Dewpoint
-1°C / 30°F
Humidity
87%
Altimeter
29.83" Hg
Pressure
1010.4 hPa